Time;durP1;ratioP1;P1;durP2;ratioP2;P2;SDS_P1;SDS_P2;PMS_P1;PMS_P2;Temp;Humidity;BMP_temperature;BMP_pressure;BME280_temperature;BME280_humidity;BME280_pressure;Samples;Min_cycle;Max_cycle;Signal;HPM_P1;HPM_P2
2023/10/12 05:03:22;;;;;;;26.07;11.40;;;;;;;;;;4914861;29;20856;-75
2023/10/12 05:05:55;;;;;;;21.77;10.97;;;;;;;;;;4915990;29;20410;-75
2023/10/12 05:08:21;;;;;;;30.43;10.63;;;;;;;;;;4915542;29;20407;-75
2023/10/12 05:10:47;;;;;;;32.43;12.07;;;;;;;;;;4915432;29;20430;-76
2023/10/12 05:13:19;;;;;;;32.87;12.23;;;;;;;;;;4915493;29;20411;-75
2023/10/12 05:15:54;;;;;;;25.70;11.73;;;;;;;;;;4915930;29;20423;-77
2023/10/12 05:18:21;;;;;;;24.50;10.47;;;;;;;;;;4916098;29;20470;-77
2023/10/12 05:20:47;;;;;;;35.20;12.30;;;;;;;;;;4915721;29;20502;-77
2023/10/12 05:23:13;;;;;;;28.10;12.10;;;;;;;;;;4933938;29;20984;-77
2023/10/12 05:25:50;;;;;;;23.03;11.47;;;;;;;;;;4919334;29;20472;-77
2023/10/12 05:28:17;;;;;;;29.60;12.70;;;;;;;;;;4919021;29;20470;-76
2023/10/12 05:31:28;;;;;;;52.93;13.43;;;;;;;;;;4919060;29;20435;-77
2023/10/12 05:35:59;;;;;;;26.07;10.73;;;;;;;;;;4919409;29;20430;-75
2023/10/12 05:38:37;;;;;;;21.63;10.90;;;;;;;;;;4917884;29;20418;-74
2023/10/12 05:41:10;;;;;;;27.03;10.67;;;;;;;;;;4905298;29;20454;-74
2023/10/12 05:43:38;;;;;;;27.30;11.90;;;;;;;;;;4915686;29;20476;-75
2023/10/12 05:46:10;;;;;;;27.33;10.73;;;;;;;;;;4917692;29;20426;-75
2023/10/12 05:48:45;;;;;;;31.17;10.27;;;;;;;;;;4927043;29;20426;-75
2023/10/12 05:51:18;;;;;;;32.80;11.90;;;;;;;;;;4916348;29;21032;-75
2023/10/12 05:53:45;;;;;;;24.77;9.60;;;;;;;;;;4918476;29;20445;-75
2023/10/12 05:56:12;;;;;;;22.60;11.27;;;;;;;;;;4917462;29;20918;-69
2023/10/12 05:58:38;;;;;;;29.07;11.10;;;;;;;;;;4926002;29;20531;-71
2023/10/12 06:01:17;;;;;;;29.33;12.27;;;;;;;;;;4905011;29;20550;-68
2023/10/12 06:03:46;;;;;;;26.43;10.70;;;;;;;;;;4917954;29;20880;-69
2023/10/12 06:06:12;;;;;;;25.20;9.80;;;;;;;;;;4916198;29;20946;-69
2023/10/12 06:08:38;;;;;;;24.73;10.20;;;;;;;;;;4917332;29;20430;-69
2023/10/12 06:11:07;;;;;;;36.03;11.90;;;;;;;;;;4918233;29;20465;-69
2023/10/12 06:13:44;;;;;;;24.27;11.20;;;;;;;;;;4918241;29;20782;-69
2023/10/12 06:16:16;;;;;;;24.90;10.27;;;;;;;;;;4917825;29;20512;-69
2023/10/12 06:18:44;;;;;;;27.97;10.77;;;;;;;;;;4911981;29;20563;-68
2023/10/12 06:21:20;;;;;;;29.53;11.00;;;;;;;;;;4913360;29;20472;-69
2023/10/12 06:23:50;;;;;;;24.50;10.37;;;;;;;;;;4916719;29;20477;-76
2023/10/12 06:26:34;;;;;;;26.67;11.00;;;;;;;;;;4918062;29;20446;-76
2023/10/12 06:29:01;;;;;;;25.60;10.10;;;;;;;;;;4921370;29;20426;-78
2023/10/12 06:31:30;;;;;;;23.40;11.33;;;;;;;;;;4912982;29;20951;-77
2023/10/12 06:33:59;;;;;;;27.53;11.33;;;;;;;;;;4911401;29;20433;-77
2023/10/12 06:36:37;;;;;;;30.90;12.20;;;;;;;;;;4917967;29;21121;-77
2023/10/12 06:46:47;;;;;;;28.40;11.83;;;;;;;;;;4917755;29;20406;-77
2023/10/12 06:49:18;;;;;;;28.23;9.67;;;;;;;;;;4917155;29;20407;-77
2023/10/12 06:51:53;;;;;;;28.33;11.50;;;;;;;;;;4917388;29;20480;-77
2023/10/12 06:54:19;;;;;;;27.73;10.43;;;;;;;;;;4917829;29;20473;-77
2023/10/12 06:56:51;;;;;;;20.23;9.80;;;;;;;;;;4917483;29;20506;-76
2023/10/12 07:04:15;;;;;;;42.87;12.27;;;;;;;;;;4916884;29;20474;-76
2023/10/12 07:07:00;;;;;;;33.53;13.13;;;;;;;;;;4916915;29;20493;-77
2023/10/12 07:09:39;;;;;;;38.33;11.03;;;;;;;;;;4917093;29;20473;-76
2023/10/12 07:12:08;;;;;;;38.47;13.60;;;;;;;;;;4917342;29;20423;-76
2023/10/12 07:14:42;;;;;;;35.07;13.00;;;;;;;;;;4916887;29;20426;-76
2023/10/12 07:17:09;;;;;;;36.90;12.20;;;;;;;;;;4916737;29;20406;-75
2023/10/12 07:19:35;;;;;;;38.30;12.33;;;;;;;;;;4915157;29;20430;-76
2023/10/12 07:22:01;;;;;;;26.63;11.50;;;;;;;;;;4916486;29;20525;-76
2023/10/12 07:24:30;;;;;;;43.40;13.37;;;;;;;;;;4916721;29;20557;-76
2023/10/12 07:27:09;;;;;;;30.50;11.93;;;;;;;;;;4916700;29;20441;-75
2023/10/12 07:29:36;;;;;;;33.97;10.90;;;;;;;;;;4918120;29;20423;-76
2023/10/12 07:34:54;;;;;;;34.90;12.07;;;;;;;;;;4917812;29;20422;-75
2023/10/12 07:37:20;;;;;;;38.77;11.53;;;;;;;;;;4917861;29;20441;-77
2023/10/12 07:39:46;;;;;;;33.03;11.57;;;;;;;;;;4916711;29;20529;-76
2023/10/12 07:42:12;;;;;;;33.67;10.57;;;;;;;;;;4915651;29;20438;-76
2023/10/12 07:44:41;;;;;;;28.90;12.50;;;;;;;;;;4916220;29;20417;-76
2023/10/12 07:47:14;;;;;;;30.57;11.40;;;;;;;;;;4916237;29;20538;-76
2023/10/12 07:49:48;;;;;;;29.37;11.47;;;;;;;;;;4916695;29;20771;-75
2023/10/12 07:54:47;;;;;;;24.63;10.53;;;;;;;;;;4916158;29;20974;-76
2023/10/12 07:57:13;;;;;;;25.13;10.90;;;;;;;;;;4914649;29;20924;-76
2023/10/12 07:59:54;;;;;;;44.37;12.80;;;;;;;;;;4916377;29;20454;-76
2023/10/12 08:02:59;;;;;;;29.07;11.40;;;;;;;;;;4897054;29;20526;-77
2023/10/12 08:05:24;;;;;;;41.73;11.17;;;;;;;;;;4908307;29;20970;-76
2023/10/12 08:13:14;;;;;;;38.70;12.20;;;;;;;;;;4916567;29;20401;-76
2023/10/12 08:15:56;;;;;;;41.13;13.30;;;;;;;;;;4915238;29;20522;-76
2023/10/12 08:26:35;;;;;;;36.23;11.93;;;;;;;;;;4915363;29;20437;-76
2023/10/12 08:31:55;;;;;;;37.57;13.17;;;;;;;;;;4916359;29;20470;-74
2023/10/12 08:39:50;;;;;;;33.17;14.50;;;;;;;;;;4915661;29;20444;-73
2023/10/12 08:44:58;;;;;;;39.37;14.07;;;;;;;;;;4914718;29;20790;-74
2023/10/12 08:52:30;;;;;;;42.90;12.80;;;;;;;;;;4916050;29;20445;-76
2023/10/12 08:55:04;;;;;;;21.23;11.47;;;;;;;;;;4914265;29;20427;-74
2023/10/12 08:57:44;;;;;;;35.00;11.60;;;;;;;;;;4918463;29;20478;-74
2023/10/12 09:03:14;;;;;;;28.63;9.50;;;;;;;;;;4907449;29;20481;-73
2023/10/12 09:05:40;;;;;;;21.70;8.00;;;;;;;;;;4919977;29;21235;-73
2023/10/12 09:08:39;;;;;;;21.07;8.57;;;;;;;;;;4919749;29;20798;-73
2023/10/12 09:11:02;;;;;;;21.10;8.83;;;;;;;;;;4920026;29;20964;-73
2023/10/12 09:13:29;;;;;;;22.37;9.23;;;;;;;;;;4919655;29;20417;-73
2023/10/12 09:15:56;;;;;;;21.00;6.77;;;;;;;;;;4919598;29;20465;-74
2023/10/12 09:18:24;;;;;;;17.00;7.50;;;;;;;;;;4919123;29;20882;-74
2023/10/12 09:23:31;;;;;;;23.17;7.23;;;;;;;;;;4919072;29;20501;-74
2023/10/12 09:28:43;;;;;;;16.07;7.17;;;;;;;;;;4918659;29;20429;-74
2023/10/12 09:36:24;;;;;;;20.73;7.30;;;;;;;;;;4919146;29;20509;-74
2023/10/12 09:38:55;;;;;;;17.03;7.13;;;;;;;;;;4918503;29;20418;-74
2023/10/12 09:41:25;;;;;;;16.03;7.00;;;;;;;;;;4919163;29;20446;-74
2023/10/12 09:43:54;;;;;;;18.73;6.20;;;;;;;;;;4918697;29;20488;-74
2023/10/12 09:46:24;;;;;;;13.30;7.40;;;;;;;;;;4918372;29;20982;-74
2023/10/12 09:48:53;;;;;;;22.70;7.90;;;;;;;;;;4918129;29;20407;-73
2023/10/12 09:51:20;;;;;;;14.73;7.30;;;;;;;;;;4918890;29;20843;-74
2023/10/12 09:53:58;;;;;;;18.90;8.37;;;;;;;;;;4918304;29;20418;-74
2023/10/12 09:56:28;;;;;;;20.60;8.90;;;;;;;;;;4918324;29;20477;-74
2023/10/12 09:59:07;;;;;;;19.43;8.73;;;;;;;;;;4918095;29;20413;-74
2023/10/12 10:01:49;;;;;;;27.30;8.63;;;;;;;;;;4918104;29;20525;-74
2023/10/12 10:06:53;;;;;;;21.97;8.10;;;;;;;;;;4916486;29;20462;-74
2023/10/12 10:09:36;;;;;;;17.43;8.40;;;;;;;;;;4917254;29;20431;-74
2023/10/12 10:12:05;;;;;;;14.90;7.23;;;;;;;;;;4917862;29;20427;-74
2023/10/12 10:14:35;;;;;;;16.97;8.40;;;;;;;;;;4917679;29;20479;-73
2023/10/12 10:17:01;;;;;;;30.53;7.67;;;;;;;;;;4917786;29;20426;-75
2023/10/12 10:19:30;;;;;;;17.57;8.13;;;;;;;;;;4917828;29;20478;-74
2023/10/12 10:22:08;;;;;;;22.57;7.27;;;;;;;;;;4902609;29;20883;-74
2023/10/12 10:24:58;;;;;;;28.33;8.23;;;;;;;;;;4917767;29;20812;-74
2023/10/12 10:27:34;;;;;;;22.57;7.83;;;;;;;;;;4917629;29;20493;-74
2023/10/12 10:30:13;;;;;;;20.40;8.17;;;;;;;;;;4917725;29;20909;-74
2023/10/12 10:32:39;;;;;;;18.37;9.20;;;;;;;;;;4916235;29;20479;-75
2023/10/12 10:35:18;;;;;;;19.33;7.70;;;;;;;;;;4917594;29;20415;-75
2023/10/12 10:37:57;;;;;;;13.90;7.37;;;;;;;;;;4916656;29;20438;-74
2023/10/12 10:40:39;;;;;;;17.10;7.60;;;;;;;;;;4915565;29;20911;-73
2023/10/12 10:43:08;;;;;;;22.80;8.40;;;;;;;;;;4917696;29;20474;-74
2023/10/12 10:45:37;;;;;;;17.63;7.03;;;;;;;;;;4916496;29;20434;-74
2023/10/12 10:48:04;;;;;;;16.27;7.77;;;;;;;;;;4915981;29;20562;-75
2023/10/12 10:50:33;;;;;;;16.37;7.67;;;;;;;;;;4917003;29;20431;-73
2023/10/12 10:53:00;;;;;;;13.67;7.10;;;;;;;;;;4916954;29;20949;-73
2023/10/12 10:55:31;;;;;;;13.00;6.87;;;;;;;;;;4917080;29;20464;-73
2023/10/12 10:57:57;;;;;;;15.20;7.60;;;;;;;;;;4916992;29;20447;-73
2023/10/12 11:00:33;;;;;;;19.53;8.20;;;;;;;;;;4916511;29;20508;-73
2023/10/12 11:03:03;;;;;;;20.13;8.40;;;;;;;;;;4916779;29;20521;-73
2023/10/12 11:05:29;;;;;;;27.17;7.97;;;;;;;;;;4916952;29;20411;-73
2023/10/12 11:07:58;;;;;;;34.97;9.80;;;;;;;;;;4916562;29;20411;-74
2023/10/12 11:10:31;;;;;;;17.20;6.97;;;;;;;;;;4917069;29;20915;-75
2023/10/12 11:13:02;;;;;;;21.83;7.87;;;;;;;;;;4917098;29;20426;-74
2023/10/12 11:15:28;;;;;;;17.73;7.23;;;;;;;;;;4946256;23;20499;-70
2023/10/12 11:18:00;;;;;;;16.27;8.20;;;;;;;;;;4954565;29;20471;-70
2023/10/12 11:20:49;;;;;;;21.37;7.73;;;;;;;;;;4954085;28;20405;-71
2023/10/12 11:23:15;;;;;;;21.60;7.83;;;;;;;;;;4955023;28;20605;-70
2023/10/12 11:25:41;;;;;;;14.90;8.20;;;;;;;;;;4954526;29;20440;-71
2023/10/12 11:28:20;;;;;;;22.03;8.73;;;;;;;;;;4954331;29;20408;-70
2023/10/12 11:30:46;;;;;;;24.63;8.33;;;;;;;;;;4953200;29;20417;-70
2023/10/12 11:33:12;;;;;;;19.00;7.70;;;;;;;;;;4954364;29;20919;-70
2023/10/12 11:35:43;;;;;;;21.80;8.77;;;;;;;;;;4954527;29;20471;-70
2023/10/12 11:38:19;;;;;;;29.97;9.70;;;;;;;;;;4954222;28;20425;-71
2023/10/12 11:40:55;;;;;;;26.53;8.33;;;;;;;;;;5069168;28;20584;-71
2023/10/12 11:43:29;;;;;;;21.07;8.53;;;;;;;;;;5069758;28;20413;-70
2023/10/12 11:46:01;;;;;;;20.83;9.10;;;;;;;;;;5068863;28;20506;-71
2023/10/12 11:48:28;;;;;;;16.80;8.80;;;;;;;;;;5068767;28;21036;-71
2023/10/12 11:50:55;;;;;;;31.33;8.83;;;;;;;;;;5068974;28;20912;-71
2023/10/12 11:53:21;;;;;;;23.63;8.77;;;;;;;;;;5083185;22;20498;-73
2023/10/12 11:55:50;;;;;;;49.57;12.80;;;;;;;;;;5068983;28;20439;-74
2023/10/12 11:58:19;;;;;;;61.47;14.17;;;;;;;;;;5068662;28;20395;-73
2023/10/12 12:00:45;;;;;;;28.63;8.30;;;;;;;;;;5068913;28;20462;-74
2023/10/12 12:03:11;;;;;;;17.67;7.33;;;;;;;;;;5068597;28;20434;-74
2023/10/12 12:05:37;;;;;;;18.50;7.10;;;;;;;;;;5068883;28;20404;-74
2023/10/12 12:08:37;;;;;;;15.10;6.80;;;;;;;;;;5068331;28;20403;-74
2023/10/12 12:11:03;;;;;;;24.27;7.40;;;;;;;;;;5066611;28;20461;-74
2023/10/12 12:13:29;;;;;;;14.93;7.80;;;;;;;;;;5068663;28;20454;-74
2023/10/12 12:15:57;;;;;;;19.47;7.67;;;;;;;;;;5068516;28;20419;-74
2023/10/12 12:18:23;;;;;;;12.10;7.30;;;;;;;;;;5068491;28;20407;-74
2023/10/12 12:20:56;;;;;;;15.20;7.70;;;;;;;;;;5068643;28;20378;-74
2023/10/12 12:23:33;;;;;;;11.87;7.00;;;;;;;;;;5068495;28;20415;-74
2023/10/12 12:26:07;;;;;;;21.67;7.80;;;;;;;;;;5068453;28;20407;-75
2023/10/12 12:28:33;;;;;;;19.80;8.53;;;;;;;;;;5068608;28;20406;-74
2023/10/12 12:31:00;;;;;;;24.13;8.30;;;;;;;;;;5069229;28;20407;-74
2023/10/12 12:33:27;;;;;;;14.40;7.40;;;;;;;;;;5051557;28;20454;-74
2023/10/12 12:36:10;;;;;;;14.60;7.93;;;;;;;;;;5068210;28;20431;-74
2023/10/12 12:41:20;;;;;;;18.53;9.07;;;;;;;;;;5067994;28;20517;-74
2023/10/12 12:43:49;;;;;;;13.90;7.00;;;;;;;;;;5068102;28;20415;-74
2023/10/12 12:46:16;;;;;;;19.37;7.90;;;;;;;;;;5067317;28;20490;-74
2023/10/12 12:48:45;;;;;;;24.53;7.87;;;;;;;;;;5067331;28;20400;-74
2023/10/12 12:51:15;;;;;;;17.03;7.67;;;;;;;;;;5060101;28;20400;-74
2023/10/12 12:53:46;;;;;;;18.20;8.40;;;;;;;;;;5054154;28;20432;-75
2023/10/12 12:56:14;;;;;;;23.80;9.03;;;;;;;;;;5054325;28;20753;-75
2023/10/12 12:58:46;;;;;;;32.23;8.83;;;;;;;;;;5053831;28;20420;-74
2023/10/12 13:01:12;;;;;;;19.23;6.87;;;;;;;;;;5054256;28;20405;-74
2023/10/12 13:03:38;;;;;;;21.50;8.90;;;;;;;;;;5054061;28;20507;-74
2023/10/12 13:06:07;;;;;;;15.47;7.70;;;;;;;;;;5036287;28;20487;-74
2023/10/12 13:08:34;;;;;;;18.00;8.07;;;;;;;;;;5053899;28;20408;-74
2023/10/12 13:11:00;;;;;;;23.17;8.67;;;;;;;;;;5054553;28;20772;-75
2023/10/12 13:13:26;;;;;;;20.83;8.07;;;;;;;;;;5053883;28;20420;-74
2023/10/12 13:15:52;;;;;;;19.10;7.17;;;;;;;;;;5053794;28;20415;-74
2023/10/12 13:18:19;;;;;;;13.57;7.47;;;;;;;;;;5053757;28;20408;-74
2023/10/12 13:20:46;;;;;;;16.20;7.80;;;;;;;;;;5053720;28;20455;-75
2023/10/12 13:23:13;;;;;;;25.33;9.73;;;;;;;;;;5053823;28;21091;-74
2023/10/12 13:25:39;;;;;;;17.10;7.50;;;;;;;;;;5053898;28;20408;-74
2023/10/12 13:28:05;;;;;;;18.63;8.57;;;;;;;;;;5035722;28;20879;-75
2023/10/12 13:30:33;;;;;;;16.83;7.50;;;;;;;;;;5035855;28;20833;-75
2023/10/12 13:33:00;;;;;;;17.53;7.93;;;;;;;;;;5054025;28;20443;-75
2023/10/12 13:35:31;;;;;;;17.13;7.90;;;;;;;;;;5053747;28;20408;-74
2023/10/12 13:38:05;;;;;;;20.03;8.07;;;;;;;;;;5053754;28;20412;-75
2023/10/12 13:40:31;;;;;;;24.30;8.40;;;;;;;;;;5053731;28;20508;-74
2023/10/12 13:45:47;;;;;;;20.70;9.43;;;;;;;;;;5053676;28;20399;-74
2023/10/12 13:48:13;;;;;;;20.83;8.67;;;;;;;;;;5053914;28;20820;-74
2023/10/12 13:50:39;;;;;;;27.80;8.90;;;;;;;;;;5036431;28;20420;-74
2023/10/12 13:53:05;;;;;;;20.53;7.80;;;;;;;;;;5053880;28;20463;-74
2023/10/12 13:55:32;;;;;;;15.80;8.27;;;;;;;;;;5053597;28;20426;-75
2023/10/12 13:58:00;;;;;;;16.60;7.93;;;;;;;;;;5053494;28;20408;-74
2023/10/12 14:00:26;;;;;;;23.33;7.43;;;;;;;;;;5053450;28;20470;-74
2023/10/12 14:02:59;;;;;;;21.50;8.07;;;;;;;;;;5052319;28;20822;-74
2023/10/12 14:05:25;;;;;;;19.50;8.50;;;;;;;;;;5053110;28;20406;-75
2023/10/12 14:07:55;;;;;;;22.17;8.50;;;;;;;;;;5035045;28;20515;-75
2023/10/12 14:10:24;;;;;;;18.60;7.83;;;;;;;;;;5053168;28;20753;-75
2023/10/12 14:12:53;;;;;;;12.20;7.00;;;;;;;;;;5052808;28;20800;-75
2023/10/12 14:15:19;;;;;;;23.00;9.90;;;;;;;;;;5034928;28;20420;-74
2023/10/12 14:17:45;;;;;;;15.97;8.10;;;;;;;;;;5052618;28;20405;-74
2023/10/12 14:20:13;;;;;;;21.30;7.97;;;;;;;;;;5053005;28;20767;-75
2023/10/12 14:22:42;;;;;;;13.00;6.77;;;;;;;;;;5052836;28;20486;-75
2023/10/12 14:25:08;;;;;;;14.60;7.40;;;;;;;;;;5055776;28;20408;-74
2023/10/12 14:27:34;;;;;;;15.50;7.80;;;;;;;;;;5052862;28;20994;-74
2023/10/12 14:30:13;;;;;;;14.30;7.40;;;;;;;;;;5053468;28;20491;-75
2023/10/12 14:32:40;;;;;;;19.80;7.87;;;;;;;;;;5053501;28;20794;-75
2023/10/12 14:35:06;;;;;;;20.20;8.23;;;;;;;;;;5053296;28;20469;-74
2023/10/12 14:37:36;;;;;;;19.57;8.27;;;;;;;;;;5058161;28;20415;-75
2023/10/12 14:40:04;;;;;;;14.23;7.97;;;;;;;;;;5073385;28;20559;-74
2023/10/12 14:42:31;;;;;;;22.43;7.10;;;;;;;;;;5073337;28;20786;-74
2023/10/12 14:44:57;;;;;;;17.90;7.37;;;;;;;;;;5055368;28;20408;-74
2023/10/12 14:47:23;;;;;;;18.53;7.60;;;;;;;;;;5072460;28;20408;-74
2023/10/12 14:49:50;;;;;;;14.73;8.17;;;;;;;;;;5062479;28;20800;-74
2023/10/12 14:52:17;;;;;;;23.63;8.50;;;;;;;;;;5052453;28;20448;-75
2023/10/12 14:54:43;;;;;;;14.77;7.60;;;;;;;;;;5034897;28;20784;-74
2023/10/12 14:57:12;;;;;;;15.73;8.10;;;;;;;;;;5052300;28;20823;-73
2023/10/12 14:59:38;;;;;;;16.40;9.00;;;;;;;;;;5052276;28;20770;-75
2023/10/12 15:02:09;;;;;;;18.00;9.00;;;;;;;;;;5034156;28;20443;-75
2023/10/12 15:04:42;;;;;;;14.13;7.43;;;;;;;;;;5052618;28;20416;-75
2023/10/12 15:07:12;;;;;;;23.07;9.80;;;;;;;;;;5051792;28;20417;-76
2023/10/12 15:09:44;;;;;;;16.07;8.43;;;;;;;;;;5052398;28;20409;-75
2023/10/12 15:12:09;;;;;;;25.17;11.27;;;;;;;;;;5052068;28;20513;-75
2023/10/12 15:14:36;;;;;;;23.90;9.60;;;;;;;;;;5051654;28;21148;-74
2023/10/12 15:17:02;;;;;;;22.63;10.50;;;;;;;;;;5051592;28;20418;-75
2023/10/12 15:19:31;;;;;;;25.37;9.63;;;;;;;;;;5051565;28;20542;-74
2023/10/12 15:21:57;;;;;;;20.40;9.03;;;;;;;;;;5051632;28;20464;-74
2023/10/12 15:24:23;;;;;;;24.87;9.50;;;;;;;;;;5051625;28;20439;-75
2023/10/12 15:26:49;;;;;;;25.20;11.40;;;;;;;;;;5051682;28;20412;-75
2023/10/12 15:29:15;;;;;;;26.07;10.40;;;;;;;;;;5051461;28;20409;-75
2023/10/12 15:31:41;;;;;;;32.63;12.17;;;;;;;;;;5051764;28;20432;-74
2023/10/12 15:34:08;;;;;;;17.90;8.90;;;;;;;;;;5052017;28;20412;-74
2023/10/12 15:36:34;;;;;;;17.07;9.43;;;;;;;;;;5051734;28;20466;-75
2023/10/12 15:39:14;;;;;;;27.60;10.33;;;;;;;;;;5051493;28;20527;-75
2023/10/12 15:41:40;;;;;;;23.20;10.70;;;;;;;;;;5053491;28;20429;-76
2023/10/12 15:44:08;;;;;;;27.20;10.63;;;;;;;;;;5052100;28;20411;-74
2023/10/12 15:46:34;;;;;;;28.17;11.00;;;;;;;;;;5052263;28;20412;-73
2023/10/12 15:49:01;;;;;;;22.40;10.33;;;;;;;;;;5051972;28;20793;-74
2023/10/12 15:51:28;;;;;;;23.80;11.03;;;;;;;;;;5051547;28;20405;-74
2023/10/12 15:53:54;;;;;;;22.93;10.00;;;;;;;;;;5051611;28;20810;-74
2023/10/12 15:56:20;;;;;;;17.67;9.90;;;;;;;;;;5051304;28;20420;-74
2023/10/12 15:58:48;;;;;;;28.17;9.70;;;;;;;;;;5051538;28;20911;-74
2023/10/12 16:01:15;;;;;;;20.90;10.13;;;;;;;;;;5033805;28;20437;-74
2023/10/12 16:03:43;;;;;;;19.30;9.33;;;;;;;;;;5051690;28;20444;-75
2023/10/12 16:06:10;;;;;;;22.23;10.13;;;;;;;;;;5051746;28;20432;-74
2023/10/12 16:08:36;;;;;;;18.00;7.67;;;;;;;;;;5052097;28;20957;-74
2023/10/12 16:11:02;;;;;;;17.60;7.70;;;;;;;;;;5051626;28;20404;-74
2023/10/12 16:13:28;;;;;;;18.50;7.10;;;;;;;;;;5050769;28;20432;-74
2023/10/12 16:15:54;;;;;;;19.47;6.60;;;;;;;;;;5050759;28;20851;-72
2023/10/12 16:18:21;;;;;;;18.73;6.33;;;;;;;;;;5051813;28;20996;-72
2023/10/12 16:20:47;;;;;;;13.13;6.40;;;;;;;;;;5051063;28;20989;-72
2023/10/12 16:23:13;;;;;;;18.57;6.20;;;;;;;;;;5033204;28;20483;-73
2023/10/12 16:25:39;;;;;;;12.30;6.40;;;;;;;;;;5051537;28;20762;-73
2023/10/12 16:28:06;;;;;;;14.20;6.17;;;;;;;;;;5054114;28;20432;-73
2023/10/12 16:30:34;;;;;;;14.23;5.50;;;;;;;;;;5055192;28;20434;-74
2023/10/12 16:33:01;;;;;;;12.07;5.20;;;;;;;;;;5054926;28;20432;-73
2023/10/12 16:35:27;;;;;;;13.43;6.57;;;;;;;;;;5037061;28;20513;-73
2023/10/12 16:37:55;;;;;;;10.63;6.10;;;;;;;;;;5054560;28;20839;-73
2023/10/12 16:40:22;;;;;;;14.43;5.90;;;;;;;;;;5055289;28;20589;-73
2023/10/12 16:42:48;;;;;;;11.73;5.63;;;;;;;;;;5055218;28;20435;-74
2023/10/12 16:45:15;;;;;;;16.20;6.43;;;;;;;;;;5054829;28;20432;-73
2023/10/12 16:47:41;;;;;;;11.50;5.80;;;;;;;;;;5054514;28;20415;-74
2023/10/12 16:50:08;;;;;;;13.93;5.47;;;;;;;;;;5054064;28;20462;-75
2023/10/12 16:52:34;;;;;;;11.63;5.50;;;;;;;;;;5036165;28;20463;-75
2023/10/12 16:55:00;;;;;;;18.40;6.20;;;;;;;;;;5054175;28;20420;-75
2023/10/12 16:57:27;;;;;;;12.23;5.27;;;;;;;;;;5054088;28;20416;-75
2023/10/12 16:59:53;;;;;;;14.67;6.87;;;;;;;;;;5054285;28;20459;-74
2023/10/12 17:02:19;;;;;;;13.00;6.13;;;;;;;;;;5053458;28;20444;-75
2023/10/12 17:04:49;;;;;;;13.40;5.90;;;;;;;;;;5036291;28;20421;-74
2023/10/12 17:07:15;;;;;;;17.70;6.80;;;;;;;;;;5054140;28;20415;-75
2023/10/12 17:09:41;;;;;;;14.60;6.90;;;;;;;;;;5023421;28;20448;-75
2023/10/12 17:12:10;;;;;;;10.80;5.97;;;;;;;;;;5035565;28;20437;-75
2023/10/12 17:14:37;;;;;;;14.23;6.13;;;;;;;;;;5037346;28;20459;-76
2023/10/12 17:17:03;;;;;;;13.37;5.67;;;;;;;;;;5041374;28;20413;-73
2023/10/12 17:19:35;;;;;;;17.53;7.40;;;;;;;;;;5037231;28;20507;-74
2023/10/12 17:22:03;;;;;;;18.33;8.97;;;;;;;;;;5021933;28;20860;-74
2023/10/12 17:24:29;;;;;;;17.37;8.93;;;;;;;;;;5040634;28;20425;-73
2023/10/12 17:26:56;;;;;;;32.17;11.20;;;;;;;;;;5040375;28;20441;-74
2023/10/12 17:29:22;;;;;;;17.03;8.93;;;;;;;;;;5043662;28;20409;-74
2023/10/12 17:31:48;;;;;;;17.70;8.70;;;;;;;;;;5035475;28;20479;-76
2023/10/12 17:34:14;;;;;;;19.73;9.20;;;;;;;;;;5034168;28;20770;-74
2023/10/12 17:36:40;;;;;;;14.80;7.30;;;;;;;;;;5034013;28;20413;-74
2023/10/12 17:39:18;;;;;;;16.37;7.77;;;;;;;;;;5015894;28;21022;-74
2023/10/12 17:41:44;;;;;;;19.77;9.47;;;;;;;;;;5034045;28;20764;-74
2023/10/12 17:44:10;;;;;;;19.23;9.30;;;;;;;;;;5035130;28;20472;-75
2023/10/12 17:46:36;;;;;;;18.10;7.90;;;;;;;;;;5034031;28;20417;-76
2023/10/12 17:49:03;;;;;;;15.90;7.50;;;;;;;;;;5016398;28;20519;-74
2023/10/12 17:51:34;;;;;;;24.90;8.77;;;;;;;;;;5034014;28;20417;-74
2023/10/12 17:54:01;;;;;;;16.77;9.13;;;;;;;;;;5090938;22;20499;-70
2023/10/12 17:56:26;;;;;;;28.23;9.77;;;;;;;;;;5073185;28;20415;-70
2023/10/12 17:58:52;;;;;;;27.53;11.33;;;;;;;;;;5073229;28;20400;-70
2023/10/12 18:01:18;;;;;;;23.70;10.07;;;;;;;;;;5073245;28;20416;-69
2023/10/12 18:03:46;;;;;;;18.97;9.70;;;;;;;;;;5066473;28;20936;-73
2023/10/12 18:06:12;;;;;;;22.53;9.00;;;;;;;;;;5064723;28;20422;-72
2023/10/12 18:08:40;;;;;;;24.87;10.40;;;;;;;;;;5069149;28;20409;-73
2023/10/12 18:11:08;;;;;;;18.80;9.27;;;;;;;;;;5072622;28;20434;-72
2023/10/12 18:13:35;;;;;;;23.10;10.10;;;;;;;;;;5072853;28;20423;-72
2023/10/12 18:16:03;;;;;;;36.20;13.13;;;;;;;;;;5066056;28;20426;-71
2023/10/12 18:18:29;;;;;;;25.20;8.80;;;;;;;;;;5066502;28;20530;-73
2023/10/12 18:20:56;;;;;;;21.70;10.60;;;;;;;;;;5055193;28;20471;-72
2023/10/12 18:23:22;;;;;;;23.20;11.63;;;;;;;;;;5067754;28;20527;-72
2023/10/12 18:25:48;;;;;;;24.70;9.57;;;;;;;;;;5067787;28;20423;-72
2023/10/12 18:28:16;;;;;;;26.87;10.10;;;;;;;;;;5060932;28;20757;-72
2023/10/12 18:30:43;;;;;;;18.73;8.33;;;;;;;;;;5062248;28;20438;-73
2023/10/12 18:33:10;;;;;;;15.37;8.10;;;;;;;;;;5061151;28;20443;-72
2023/10/12 18:35:36;;;;;;;22.37;7.87;;;;;;;;;;5066497;28;20787;-72
2023/10/12 18:38:03;;;;;;;19.03;9.30;;;;;;;;;;5065068;28;20423;-72
2023/10/12 18:40:29;;;;;;;26.30;13.10;;;;;;;;;;5072164;28;20459;-72
2023/10/12 18:42:55;;;;;;;27.20;11.80;;;;;;;;;;5078732;28;20435;-72
2023/10/12 18:45:21;;;;;;;17.00;8.20;;;;;;;;;;5073802;28;20991;-72
2023/10/12 18:47:51;;;;;;;22.77;9.87;;;;;;;;;;5071989;28;20415;-72
2023/10/12 18:50:17;;;;;;;15.37;8.47;;;;;;;;;;5071491;28;20419;-72
2023/10/12 18:52:44;;;;;;;20.27;10.37;;;;;;;;;;5070287;28;20466;-72
2023/10/12 18:55:10;;;;;;;19.10;9.90;;;;;;;;;;5071726;28;20423;-73
2023/10/12 18:57:41;;;;;;;22.17;11.10;;;;;;;;;;5069405;28;20416;-72
2023/10/12 19:00:15;;;;;;;26.10;12.87;;;;;;;;;;5071703;28;20991;-72
2023/10/12 19:02:41;;;;;;;24.60;12.03;;;;;;;;;;5071429;28;20443;-72
2023/10/12 19:05:08;;;;;;;28.03;10.83;;;;;;;;;;5071697;28;20414;-72
2023/10/12 19:07:35;;;;;;;18.73;11.07;;;;;;;;;;5071510;28;20494;-73
2023/10/12 19:10:05;;;;;;;25.90;9.50;;;;;;;;;;5071770;28;20426;-72
2023/10/12 19:12:32;;;;;;;26.57;12.70;;;;;;;;;;5080722;28;20833;-73
2023/10/12 19:14:58;;;;;;;28.23;11.67;;;;;;;;;;5072224;28;20415;-73
2023/10/12 19:17:26;;;;;;;23.37;11.80;;;;;;;;;;5071757;28;20458;-73
2023/10/12 19:19:52;;;;;;;25.03;11.03;;;;;;;;;;5071579;28;20455;-72
2023/10/12 19:22:18;;;;;;;25.93;12.53;;;;;;;;;;5071608;28;20442;-72
2023/10/12 19:24:51;;;;;;;22.50;10.47;;;;;;;;;;5071617;28;20502;-72
2023/10/12 19:27:17;;;;;;;21.13;9.70;;;;;;;;;;5071372;28;20498;-72
2023/10/12 19:29:45;;;;;;;21.60;10.00;;;;;;;;;;5071600;28;20423;-71
2023/10/12 19:32:11;;;;;;;21.60;12.13;;;;;;;;;;5071543;28;20435;-72
2023/10/12 19:34:36;;;;;;;21.60;10.60;;;;;;;;;;5064240;28;20438;-72
2023/10/12 19:37:02;;;;;;;18.33;10.33;;;;;;;;;;5066705;28;20797;-73
2023/10/12 19:39:29;;;;;;;23.13;9.73;;;;;;;;;;5071241;28;20600;-73
2023/10/12 19:41:59;;;;;;;17.43;10.07;;;;;;;;;;5069519;28;20427;-73
2023/10/12 19:44:25;;;;;;;26.70;10.23;;;;;;;;;;5078417;28;20520;-71
2023/10/12 19:46:51;;;;;;;18.20;9.40;;;;;;;;;;5070532;28;20408;-71
2023/10/12 19:49:17;;;;;;;20.40;9.77;;;;;;;;;;5070663;28;20489;-71
2023/10/12 19:51:43;;;;;;;23.30;11.20;;;;;;;;;;5056547;28;20431;-71
2023/10/12 19:54:11;;;;;;;22.93;11.13;;;;;;;;;;5051289;28;20444;-71
2023/10/12 19:56:38;;;;;;;27.93;11.70;;;;;;;;;;5051541;28;20982;-71
2023/10/12 19:59:06;;;;;;;24.90;12.43;;;;;;;;;;5051703;28;20502;-71
2023/10/12 20:01:43;;;;;;;24.83;12.10;;;;;;;;;;5066379;28;20510;-70
2023/10/12 20:04:09;;;;;;;17.17;9.10;;;;;;;;;;5076306;28;20415;-71
2023/10/12 20:06:35;;;;;;;23.90;10.17;;;;;;;;;;5075593;28;20411;-71
2023/10/12 20:09:11;;;;;;;21.43;10.43;;;;;;;;;;5074066;28;20914;-71
2023/10/12 20:11:37;;;;;;;17.13;8.80;;;;;;;;;;5075604;28;20472;-71
2023/10/12 20:14:05;;;;;;;23.17;10.10;;;;;;;;;;5056758;28;20943;-71
2023/10/12 20:16:31;;;;;;;17.13;9.30;;;;;;;;;;5055188;28;20492;-72
2023/10/12 20:19:00;;;;;;;22.13;10.37;;;;;;;;;;5053713;28;20452;-71
2023/10/12 20:21:26;;;;;;;17.93;9.87;;;;;;;;;;5055323;28;20419;-71
2023/10/12 20:23:52;;;;;;;13.07;7.80;;;;;;;;;;5054934;28;20424;-71
2023/10/12 20:26:18;;;;;;;25.37;9.70;;;;;;;;;;5054948;28;20442;-71
2023/10/12 20:28:44;;;;;;;19.93;8.43;;;;;;;;;;5054752;28;20408;-71
2023/10/12 20:31:10;;;;;;;16.67;8.03;;;;;;;;;;5054797;28;20400;-71
2023/10/12 20:33:36;;;;;;;22.50;9.00;;;;;;;;;;5054818;28;20451;-71
2023/10/12 20:36:04;;;;;;;14.00;8.67;;;;;;;;;;5054893;28;20407;-71
2023/10/12 20:38:32;;;;;;;22.23;10.57;;;;;;;;;;5074663;28;20745;-71
2023/10/12 20:40:59;;;;;;;19.83;8.73;;;;;;;;;;5074594;28;20454;-71
2023/10/12 20:43:25;;;;;;;16.03;9.00;;;;;;;;;;5074646;28;20419;-71
2023/10/12 20:46:06;;;;;;;12.37;8.07;;;;;;;;;;5073883;28;20484;-71
2023/10/12 20:48:35;;;;;;;18.57;10.10;;;;;;;;;;5074042;28;20423;-72
2023/10/12 20:51:01;;;;;;;21.80;10.80;;;;;;;;;;5073495;28;20825;-72